sensor_id;sensor_type;location;lat;lon;timestamp;temperature;humidity
32614;DHT22;19031;51.400;6.770;2023-09-30T00:00:42;12.10;99.90
32614;DHT22;19031;51.400;6.770;2023-09-30T00:03:08;12.10;99.90
32614;DHT22;19031;51.400;6.770;2023-09-30T00:05:33;12.10;99.90
32614;DHT22;19031;51.400;6.770;2023-09-30T00:07:59;12.10;99.90
32614;DHT22;19031;51.400;6.770;2023-09-30T00:10:24;12.00;99.90
32614;DHT22;19031;51.400;6.770;2023-09-30T00:12:50;12.00;99.90
32614;DHT22;19031;51.400;6.770;2023-09-30T00:15:15;12.00;99.90
32614;DHT22;19031;51.400;6.770;2023-09-30T00:17:41;12.00;99.90
32614;DHT22;19031;51.400;6.770;2023-09-30T00:20:07;12.00;99.90
32614;DHT22;19031;51.400;6.770;2023-09-30T00:22:33;12.10;99.90
32614;DHT22;19031;51.400;6.770;2023-09-30T00:24:59;12.00;99.90
32614;DHT22;19031;51.400;6.770;2023-09-30T00:27:24;12.00;99.90
32614;DHT22;19031;51.400;6.770;2023-09-30T00:29:50;12.10;99.90
32614;DHT22;19031;51.400;6.770;2023-09-30T00:32:15;12.10;99.90
32614;DHT22;19031;51.400;6.770;2023-09-30T00:34:41;12.10;99.90
32614;DHT22;19031;51.400;6.770;2023-09-30T00:37:08;12.20;99.90
32614;DHT22;19031;51.400;6.770;2023-09-30T00:39:33;12.20;99.90
32614;DHT22;19031;51.400;6.770;2023-09-30T00:41:59;12.10;99.90
32614;DHT22;19031;51.400;6.770;2023-09-30T00:44:26;12.20;99.90
32614;DHT22;19031;51.400;6.770;2023-09-30T00:46:52;12.20;99.90
32614;DHT22;19031;51.400;6.770;2023-09-30T00:49:18;12.20;99.90
32614;DHT22;19031;51.400;6.770;2023-09-30T00:51:45;12.20;99.90
32614;DHT22;19031;51.400;6.770;2023-09-30T00:54:12;12.20;99.90
32614;DHT22;19031;51.400;6.770;2023-09-30T00:56:44;12.20;99.90
32614;DHT22;19031;51.400;6.770;2023-09-30T00:59:10;12.20;99.90
32614;DHT22;19031;51.400;6.770;2023-09-30T01:01:36;12.20;99.90
32614;DHT22;19031;51.400;6.770;2023-09-30T01:04:02;12.20;99.90
32614;DHT22;19031;51.400;6.770;2023-09-30T01:06:28;12.20;99.90
32614;DHT22;19031;51.400;6.770;2023-09-30T01:08:54;12.20;99.90
32614;DHT22;19031;51.400;6.770;2023-09-30T01:11:21;12.10;99.90
32614;DHT22;19031;51.400;6.770;2023-09-30T01:13:46;12.20;99.90
32614;DHT22;19031;51.400;6.770;2023-09-30T01:16:12;12.20;99.90
32614;DHT22;19031;51.400;6.770;2023-09-30T01:18:39;12.20;99.90
32614;DHT22;19031;51.400;6.770;2023-09-30T01:21:06;12.20;99.90
32614;DHT22;19031;51.400;6.770;2023-09-30T01:23:33;12.30;99.90
32614;DHT22;19031;51.400;6.770;2023-09-30T01:26:06;12.30;99.90
32614;DHT22;19031;51.400;6.770;2023-09-30T01:28:35;12.30;99.90
32614;DHT22;19031;51.400;6.770;2023-09-30T01:31:01;12.20;99.90
32614;DHT22;19031;51.400;6.770;2023-09-30T01:33:26;12.20;99.90
32614;DHT22;19031;51.400;6.770;2023-09-30T01:35:53;12.20;99.90
32614;DHT22;19031;51.400;6.770;2023-09-30T01:38:18;12.20;99.90
32614;DHT22;19031;51.400;6.770;2023-09-30T01:40:44;12.20;99.90
32614;DHT22;19031;51.400;6.770;2023-09-30T01:43:10;12.30;99.90
32614;DHT22;19031;51.400;6.770;2023-09-30T01:45:39;12.30;99.90
32614;DHT22;19031;51.400;6.770;2023-09-30T01:48:05;12.30;99.90
32614;DHT22;19031;51.400;6.770;2023-09-30T01:50:31;12.30;99.90
32614;DHT22;19031;51.400;6.770;2023-09-30T01:52:56;12.30;99.90
32614;DHT22;19031;51.400;6.770;2023-09-30T01:55:22;12.20;99.90
32614;DHT22;19031;51.400;6.770;2023-09-30T01:57:48;12.30;99.90
32614;DHT22;19031;51.400;6.770;2023-09-30T02:00:13;12.10;99.90
32614;DHT22;19031;51.400;6.770;2023-09-30T02:02:39;12.10;99.90
32614;DHT22;19031;51.400;6.770;2023-09-30T02:05:05;12.10;99.90
32614;DHT22;19031;51.400;6.770;2023-09-30T02:07:33;12.10;99.90
32614;DHT22;19031;51.400;6.770;2023-09-30T02:09:59;12.10;99.90
32614;DHT22;19031;51.400;6.770;2023-09-30T02:12:26;12.00;99.90
32614;DHT22;19031;51.400;6.770;2023-09-30T02:14:53;11.90;99.90
32614;DHT22;19031;51.400;6.770;2023-09-30T02:17:19;11.90;99.90
32614;DHT22;19031;51.400;6.770;2023-09-30T02:19:44;11.80;99.90
32614;DHT22;19031;51.400;6.770;2023-09-30T02:22:11;11.70;99.90
32614;DHT22;19031;51.400;6.770;2023-09-30T02:24:37;11.80;99.90
32614;DHT22;19031;51.400;6.770;2023-09-30T02:27:04;11.70;99.90
32614;DHT22;19031;51.400;6.770;2023-09-30T02:29:29;11.70;99.90
32614;DHT22;19031;51.400;6.770;2023-09-30T02:31:56;11.60;99.90
32614;DHT22;19031;51.400;6.770;2023-09-30T02:34:22;11.60;99.90
32614;DHT22;19031;51.400;6.770;2023-09-30T02:36:47;11.50;99.90
32614;DHT22;19031;51.400;6.770;2023-09-30T02:39:14;11.40;99.90
32614;DHT22;19031;51.400;6.770;2023-09-30T02:41:42;11.50;99.90
32614;DHT22;19031;51.400;6.770;2023-09-30T02:44:07;11.40;99.90
32614;DHT22;19031;51.400;6.770;2023-09-30T02:46:33;11.40;99.90
32614;DHT22;19031;51.400;6.770;2023-09-30T02:49:01;11.30;99.90
32614;DHT22;19031;51.400;6.770;2023-09-30T02:51:27;11.30;99.90
32614;DHT22;19031;51.400;6.770;2023-09-30T02:53:52;11.20;99.90
32614;DHT22;19031;51.400;6.770;2023-09-30T02:56:18;11.30;99.90
32614;DHT22;19031;51.400;6.770;2023-09-30T02:58:45;11.30;99.90
32614;DHT22;19031;51.400;6.770;2023-09-30T03:01:14;11.20;99.90
32614;DHT22;19031;51.400;6.770;2023-09-30T03:03:42;11.10;99.90
32614;DHT22;19031;51.400;6.770;2023-09-30T03:06:09;11.10;99.90
32614;DHT22;19031;51.400;6.770;2023-09-30T03:08:36;11.10;99.90
32614;DHT22;19031;51.400;6.770;2023-09-30T03:11:01;11.10;99.90
32614;DHT22;19031;51.400;6.770;2023-09-30T03:13:27;11.10;99.90
32614;DHT22;19031;51.400;6.770;2023-09-30T03:15:53;11.20;99.90
32614;DHT22;19031;51.400;6.770;2023-09-30T03:18:18;11.10;99.90
32614;DHT22;19031;51.400;6.770;2023-09-30T03:20:58;11.00;99.90
32614;DHT22;19031;51.400;6.770;2023-09-30T03:23:28;11.10;99.90
32614;DHT22;19031;51.400;6.770;2023-09-30T03:25:57;11.00;99.90
32614;DHT22;19031;51.400;6.770;2023-09-30T03:28:22;11.10;99.90
32614;DHT22;19031;51.400;6.770;2023-09-30T03:30:48;11.00;99.90
32614;DHT22;19031;51.400;6.770;2023-09-30T03:33:14;11.00;99.90
32614;DHT22;19031;51.400;6.770;2023-09-30T03:35:39;11.00;99.90
32614;DHT22;19031;51.400;6.770;2023-09-30T03:38:05;11.10;99.90
32614;DHT22;19031;51.400;6.770;2023-09-30T03:40:32;11.10;99.90
32614;DHT22;19031;51.400;6.770;2023-09-30T03:42:59;11.00;99.90
32614;DHT22;19031;51.400;6.770;2023-09-30T03:45:24;11.10;99.90
32614;DHT22;19031;51.400;6.770;2023-09-30T03:47:50;11.00;99.90
32614;DHT22;19031;51.400;6.770;2023-09-30T03:50:17;11.10;99.90
32614;DHT22;19031;51.400;6.770;2023-09-30T03:52:43;11.00;99.90
32614;DHT22;19031;51.400;6.770;2023-09-30T03:55:13;11.00;99.90
32614;DHT22;19031;51.400;6.770;2023-09-30T03:57:40;11.00;99.90
32614;DHT22;19031;51.400;6.770;2023-09-30T04:00:06;10.90;99.90
32614;DHT22;19031;51.400;6.770;2023-09-30T04:02:33;11.00;99.90
32614;DHT22;19031;51.400;6.770;2023-09-30T04:04:59;11.00;99.90
32614;DHT22;19031;51.400;6.770;2023-09-30T04:07:25;11.00;99.90
32614;DHT22;19031;51.400;6.770;2023-09-30T04:09:54;10.90;99.90
32614;DHT22;19031;51.400;6.770;2023-09-30T04:12:20;10.80;99.90
32614;DHT22;19031;51.400;6.770;2023-09-30T04:14:46;10.80;99.90
32614;DHT22;19031;51.400;6.770;2023-09-30T04:17:12;10.80;99.90
32614;DHT22;19031;51.400;6.770;2023-09-30T04:19:37;10.90;99.90
32614;DHT22;19031;51.400;6.770;2023-09-30T04:22:03;10.70;99.90
32614;DHT22;19031;51.400;6.770;2023-09-30T04:24:29;10.70;99.90
32614;DHT22;19031;51.400;6.770;2023-09-30T04:26:55;10.80;99.90
32614;DHT22;19031;51.400;6.770;2023-09-30T04:29:27;10.70;99.90
32614;DHT22;19031;51.400;6.770;2023-09-30T04:31:52;10.70;99.90
32614;DHT22;19031;51.400;6.770;2023-09-30T04:34:18;10.60;99.90
32614;DHT22;19031;51.400;6.770;2023-09-30T04:36:44;10.60;99.90
32614;DHT22;19031;51.400;6.770;2023-09-30T04:39:10;10.50;99.90
32614;DHT22;19031;51.400;6.770;2023-09-30T04:41:37;10.50;99.90
32614;DHT22;19031;51.400;6.770;2023-09-30T04:44:09;10.60;99.90
32614;DHT22;19031;51.400;6.770;2023-09-30T04:46:35;10.50;99.90
32614;DHT22;19031;51.400;6.770;2023-09-30T04:49:02;10.50;99.90
32614;DHT22;19031;51.400;6.770;2023-09-30T04:51:27;10.50;99.90
32614;DHT22;19031;51.400;6.770;2023-09-30T04:53:53;10.50;99.90
32614;DHT22;19031;51.400;6.770;2023-09-30T04:56:20;10.50;99.90
32614;DHT22;19031;51.400;6.770;2023-09-30T04:58:46;10.40;99.90
32614;DHT22;19031;51.400;6.770;2023-09-30T05:01:12;10.40;99.90
32614;DHT22;19031;51.400;6.770;2023-09-30T05:03:38;10.50;99.90
32614;DHT22;19031;51.400;6.770;2023-09-30T05:06:03;10.40;99.90
32614;DHT22;19031;51.400;6.770;2023-09-30T05:08:29;10.40;99.90
32614;DHT22;19031;51.400;6.770;2023-09-30T05:10:57;10.50;99.90
32614;DHT22;19031;51.400;6.770;2023-09-30T05:13:22;10.40;99.90
32614;DHT22;19031;51.400;6.770;2023-09-30T05:15:49;10.50;99.90
32614;DHT22;19031;51.400;6.770;2023-09-30T05:18:16;10.50;99.90
32614;DHT22;19031;51.400;6.770;2023-09-30T05:20:42;10.40;99.90
32614;DHT22;19031;51.400;6.770;2023-09-30T05:23:07;10.40;99.90
32614;DHT22;19031;51.400;6.770;2023-09-30T05:25:33;10.40;99.90
32614;DHT22;19031;51.400;6.770;2023-09-30T05:27:59;10.30;99.90
32614;DHT22;19031;51.400;6.770;2023-09-30T05:30:24;10.40;99.90
32614;DHT22;19031;51.400;6.770;2023-09-30T05:32:50;10.30;99.90
32614;DHT22;19031;51.400;6.770;2023-09-30T05:35:17;10.40;99.90
32614;DHT22;19031;51.400;6.770;2023-09-30T05:37:43;10.40;99.90
32614;DHT22;19031;51.400;6.770;2023-09-30T05:40:11;10.50;99.90
32614;DHT22;19031;51.400;6.770;2023-09-30T05:42:51;10.40;99.90
32614;DHT22;19031;51.400;6.770;2023-09-30T05:45:16;10.40;99.90
32614;DHT22;19031;51.400;6.770;2023-09-30T05:47:42;10.40;99.90
32614;DHT22;19031;51.400;6.770;2023-09-30T05:50:09;10.50;99.90
32614;DHT22;19031;51.400;6.770;2023-09-30T05:52:40;10.50;99.90
32614;DHT22;19031;51.400;6.770;2023-09-30T05:55:06;10.50;99.90
32614;DHT22;19031;51.400;6.770;2023-09-30T05:57:32;10.50;99.90
32614;DHT22;19031;51.400;6.770;2023-09-30T05:59:58;10.50;99.90
32614;DHT22;19031;51.400;6.770;2023-09-30T06:02:23;10.50;99.90
32614;DHT22;19031;51.400;6.770;2023-09-30T06:04:49;10.60;99.90
32614;DHT22;19031;51.400;6.770;2023-09-30T06:07:16;10.60;99.90
32614;DHT22;19031;51.400;6.770;2023-09-30T06:09:43;10.70;99.90
32614;DHT22;19031;51.400;6.770;2023-09-30T06:12:09;10.80;99.90
32614;DHT22;19031;51.400;6.770;2023-09-30T06:14:37;11.00;99.90
32614;DHT22;19031;51.400;6.770;2023-09-30T06:17:03;11.10;99.90
32614;DHT22;19031;51.400;6.770;2023-09-30T06:19:28;11.30;99.90
32614;DHT22;19031;51.400;6.770;2023-09-30T06:21:54;11.40;99.90
32614;DHT22;19031;51.400;6.770;2023-09-30T06:24:19;11.60;99.90
32614;DHT22;19031;51.400;6.770;2023-09-30T06:26:46;11.70;99.90
32614;DHT22;19031;51.400;6.770;2023-09-30T06:29:14;11.90;99.90
32614;DHT22;19031;51.400;6.770;2023-09-30T06:31:39;12.00;99.90
32614;DHT22;19031;51.400;6.770;2023-09-30T06:34:05;12.10;99.90
32614;DHT22;19031;51.400;6.770;2023-09-30T06:36:32;12.10;99.90
32614;DHT22;19031;51.400;6.770;2023-09-30T06:38:58;12.10;99.90
32614;DHT22;19031;51.400;6.770;2023-09-30T06:41:24;12.00;99.90
32614;DHT22;19031;51.400;6.770;2023-09-30T06:43:50;12.10;99.90
32614;DHT22;19031;51.400;6.770;2023-09-30T06:46:17;12.10;99.90
32614;DHT22;19031;51.400;6.770;2023-09-30T06:48:42;12.20;99.90
32614;DHT22;19031;51.400;6.770;2023-09-30T06:51:13;12.20;99.90
32614;DHT22;19031;51.400;6.770;2023-09-30T06:53:40;12.20;99.90
32614;DHT22;19031;51.400;6.770;2023-09-30T06:56:05;12.40;99.90
32614;DHT22;19031;51.400;6.770;2023-09-30T06:58:31;12.30;99.90
32614;DHT22;19031;51.400;6.770;2023-09-30T07:00:57;12.40;99.90
32614;DHT22;19031;51.400;6.770;2023-09-30T07:03:22;12.50;99.90
32614;DHT22;19031;51.400;6.770;2023-09-30T07:05:48;12.70;99.90
32614;DHT22;19031;51.400;6.770;2023-09-30T07:08:17;12.70;99.90
32614;DHT22;19031;51.400;6.770;2023-09-30T07:10:44;12.80;99.90
32614;DHT22;19031;51.400;6.770;2023-09-30T07:13:11;12.90;99.90
32614;DHT22;19031;51.400;6.770;2023-09-30T07:15:37;13.00;99.90
32614;DHT22;19031;51.400;6.770;2023-09-30T07:18:03;13.00;99.90
32614;DHT22;19031;51.400;6.770;2023-09-30T07:20:29;13.20;99.90
32614;DHT22;19031;51.400;6.770;2023-09-30T07:23:01;13.30;99.90
32614;DHT22;19031;51.400;6.770;2023-09-30T07:25:27;13.70;99.90
32614;DHT22;19031;51.400;6.770;2023-09-30T07:27:53;14.00;99.90
32614;DHT22;19031;51.400;6.770;2023-09-30T07:30:18;14.20;99.90
32614;DHT22;19031;51.400;6.770;2023-09-30T07:32:45;14.50;99.90
32614;DHT22;19031;51.400;6.770;2023-09-30T07:35:11;14.90;99.90
32614;DHT22;19031;51.400;6.770;2023-09-30T07:37:37;15.30;99.90
32614;DHT22;19031;51.400;6.770;2023-09-30T07:40:03;15.80;99.90
32614;DHT22;19031;51.400;6.770;2023-09-30T07:42:28;16.20;99.90
32614;DHT22;19031;51.400;6.770;2023-09-30T07:44:55;16.60;99.90
32614;DHT22;19031;51.400;6.770;2023-09-30T07:47:20;17.10;99.90
32614;DHT22;19031;51.400;6.770;2023-09-30T07:49:46;17.40;99.90
32614;DHT22;19031;51.400;6.770;2023-09-30T07:52:12;17.40;99.90
32614;DHT22;19031;51.400;6.770;2023-09-30T07:54:37;17.70;99.90
32614;DHT22;19031;51.400;6.770;2023-09-30T07:57:03;18.00;99.90
32614;DHT22;19031;51.400;6.770;2023-09-30T07:59:29;18.40;99.90
32614;DHT22;19031;51.400;6.770;2023-09-30T08:01:54;18.70;99.90
32614;DHT22;19031;51.400;6.770;2023-09-30T08:04:20;18.90;99.90
32614;DHT22;19031;51.400;6.770;2023-09-30T08:06:45;19.00;99.90
32614;DHT22;19031;51.400;6.770;2023-09-30T08:09:14;19.30;99.90
32614;DHT22;19031;51.400;6.770;2023-09-30T08:11:40;19.50;99.90
32614;DHT22;19031;51.400;6.770;2023-09-30T08:14:06;19.90;99.90
32614;DHT22;19031;51.400;6.770;2023-09-30T08:16:38;20.10;99.90
32614;DHT22;19031;51.400;6.770;2023-09-30T08:19:04;20.40;99.90
32614;DHT22;19031;51.400;6.770;2023-09-30T08:21:30;20.50;99.90
32614;DHT22;19031;51.400;6.770;2023-09-30T08:23:57;20.60;99.90
32614;DHT22;19031;51.400;6.770;2023-09-30T08:26:22;20.40;99.90
32614;DHT22;19031;51.400;6.770;2023-09-30T08:28:48;20.40;99.90
32614;DHT22;19031;51.400;6.770;2023-09-30T08:31:14;20.80;99.90
32614;DHT22;19031;51.400;6.770;2023-09-30T08:33:40;21.10;99.90
32614;DHT22;19031;51.400;6.770;2023-09-30T08:36:08;21.60;99.90
32614;DHT22;19031;51.400;6.770;2023-09-30T08:38:39;21.90;99.90
32614;DHT22;19031;51.400;6.770;2023-09-30T08:41:05;22.10;99.90
32614;DHT22;19031;51.400;6.770;2023-09-30T08:43:37;22.20;99.90
32614;DHT22;19031;51.400;6.770;2023-09-30T08:46:04;22.50;99.90
32614;DHT22;19031;51.400;6.770;2023-09-30T08:48:32;22.30;99.90
32614;DHT22;19031;51.400;6.770;2023-09-30T08:50:59;22.40;99.90
32614;DHT22;19031;51.400;6.770;2023-09-30T08:53:25;22.40;99.90
32614;DHT22;19031;51.400;6.770;2023-09-30T08:55:55;22.70;99.90
32614;DHT22;19031;51.400;6.770;2023-09-30T08:58:27;22.30;99.90
32614;DHT22;19031;51.400;6.770;2023-09-30T09:00:54;22.90;99.90
32614;DHT22;19031;51.400;6.770;2023-09-30T09:03:21;23.30;99.90
32614;DHT22;19031;51.400;6.770;2023-09-30T09:05:54;23.80;99.90
32614;DHT22;19031;51.400;6.770;2023-09-30T09:08:21;23.90;99.90
32614;DHT22;19031;51.400;6.770;2023-09-30T09:10:59;23.70;99.90
32614;DHT22;19031;51.400;6.770;2023-09-30T09:13:26;24.20;99.90
32614;DHT22;19031;51.400;6.770;2023-09-30T09:16:10;24.50;99.90
32614;DHT22;19031;51.400;6.770;2023-09-30T09:18:37;24.50;99.90
32614;DHT22;19031;51.400;6.770;2023-09-30T09:21:10;24.70;99.90
32614;DHT22;19031;51.400;6.770;2023-09-30T09:23:43;25.00;99.90
32614;DHT22;19031;51.400;6.770;2023-09-30T09:26:26;25.40;99.90
32614;DHT22;19031;51.400;6.770;2023-09-30T09:29:03;25.50;99.90
32614;DHT22;19031;51.400;6.770;2023-09-30T09:31:32;25.90;99.90
32614;DHT22;19031;51.400;6.770;2023-09-30T09:34:00;26.20;99.90
32614;DHT22;19031;51.400;6.770;2023-09-30T09:39:06;26.30;98.30
32614;DHT22;19031;51.400;6.770;2023-09-30T09:41:32;26.10;97.80
32614;DHT22;19031;51.400;6.770;2023-09-30T09:43:59;26.00;96.40
32614;DHT22;19031;51.400;6.770;2023-09-30T09:46:25;25.10;97.00
32614;DHT22;19031;51.400;6.770;2023-09-30T09:48:52;24.90;98.20
32614;DHT22;19031;51.400;6.770;2023-09-30T09:51:20;25.30;98.40
32614;DHT22;19031;51.400;6.770;2023-09-30T09:53:46;25.60;98.30
32614;DHT22;19031;51.400;6.770;2023-09-30T09:56:15;26.40;96.70
32614;DHT22;19031;51.400;6.770;2023-09-30T09:58:42;26.40;97.00
32614;DHT22;19031;51.400;6.770;2023-09-30T10:01:09;26.40;95.00
32614;DHT22;19031;51.400;6.770;2023-09-30T10:03:38;26.80;94.50
32614;DHT22;19031;51.400;6.770;2023-09-30T10:06:05;27.10;95.20
32614;DHT22;19031;51.400;6.770;2023-09-30T10:08:43;26.80;94.30
32614;DHT22;19031;51.400;6.770;2023-09-30T10:11:17;26.50;93.00
32614;DHT22;19031;51.400;6.770;2023-09-30T10:13:56;26.50;92.70
32614;DHT22;19031;51.400;6.770;2023-09-30T10:16:49;26.40;93.60
32614;DHT22;19031;51.400;6.770;2023-09-30T10:19:20;26.50;93.80
32614;DHT22;19031;51.400;6.770;2023-09-30T10:24:48;25.50;94.10
32614;DHT22;19031;51.400;6.770;2023-09-30T10:30:05;24.00;98.00
32614;DHT22;19031;51.400;6.770;2023-09-30T10:40:47;22.40;99.90
32614;DHT22;19031;51.400;6.770;2023-09-30T10:43:35;22.10;99.90
32614;DHT22;19031;51.400;6.770;2023-09-30T10:46:02;21.80;99.90
32614;DHT22;19031;51.400;6.770;2023-09-30T10:53:29;20.90;99.90
32614;DHT22;19031;51.400;6.770;2023-09-30T10:56:00;20.60;99.90
32614;DHT22;19031;51.400;6.770;2023-09-30T10:58:53;20.50;99.90
32614;DHT22;19031;51.400;6.770;2023-09-30T11:01:21;20.40;99.90
32614;DHT22;19031;51.400;6.770;2023-09-30T11:03:47;20.30;99.90
32614;DHT22;19031;51.400;6.770;2023-09-30T11:06:17;20.30;99.90
32614;DHT22;19031;51.400;6.770;2023-09-30T11:08:53;20.20;99.90
32614;DHT22;19031;51.400;6.770;2023-09-30T11:11:19;20.30;99.90
32614;DHT22;19031;51.400;6.770;2023-09-30T11:13:45;20.40;99.90
32614;DHT22;19031;51.400;6.770;2023-09-30T11:16:11;21.30;99.90
32614;DHT22;19031;51.400;6.770;2023-09-30T11:18:36;22.00;99.90
32614;DHT22;19031;51.400;6.770;2023-09-30T11:21:06;22.90;99.90
32614;DHT22;19031;51.400;6.770;2023-09-30T11:23:32;23.20;99.90
32614;DHT22;19031;51.400;6.770;2023-09-30T11:25:58;23.30;99.90
32614;DHT22;19031;51.400;6.770;2023-09-30T11:28:24;23.20;99.90
32614;DHT22;19031;51.400;6.770;2023-09-30T11:30:58;23.10;99.90
32614;DHT22;19031;51.400;6.770;2023-09-30T11:33:24;22.40;99.90
32614;DHT22;19031;51.400;6.770;2023-09-30T11:36:04;22.20;99.90
32614;DHT22;19031;51.400;6.770;2023-09-30T11:38:32;22.10;99.90
32614;DHT22;19031;51.400;6.770;2023-09-30T11:41:03;22.00;99.90
32614;DHT22;19031;51.400;6.770;2023-09-30T11:43:33;22.00;99.90
32614;DHT22;19031;51.400;6.770;2023-09-30T11:46:12;21.90;99.90
32614;DHT22;19031;51.400;6.770;2023-09-30T11:49:02;21.70;99.90
32614;DHT22;19031;51.400;6.770;2023-09-30T11:51:27;21.50;99.90
32614;DHT22;19031;51.400;6.770;2023-09-30T11:53:54;21.50;99.90
32614;DHT22;19031;51.400;6.770;2023-09-30T11:56:20;21.60;99.90
32614;DHT22;19031;51.400;6.770;2023-09-30T11:58:48;21.60;99.90
32614;DHT22;19031;51.400;6.770;2023-09-30T12:01:14;21.50;99.90
32614;DHT22;19031;51.400;6.770;2023-09-30T12:03:41;22.20;99.90
32614;DHT22;19031;51.400;6.770;2023-09-30T12:06:08;23.20;99.90
32614;DHT22;19031;51.400;6.770;2023-09-30T12:08:33;24.00;96.20
32614;DHT22;19031;51.400;6.770;2023-09-30T12:10:59;24.20;96.70
32614;DHT22;19031;51.400;6.770;2023-09-30T12:13:25;24.10;96.40
32614;DHT22;19031;51.400;6.770;2023-09-30T12:15:51;23.80;97.30
32614;DHT22;19031;51.400;6.770;2023-09-30T12:18:18;23.20;98.60
32614;DHT22;19031;51.400;6.770;2023-09-30T12:20:49;22.70;98.50
32614;DHT22;19031;51.400;6.770;2023-09-30T12:23:15;22.60;99.90
32614;DHT22;19031;51.400;6.770;2023-09-30T12:25:41;22.50;99.90
32614;DHT22;19031;51.400;6.770;2023-09-30T12:28:07;22.40;99.90
32614;DHT22;19031;51.400;6.770;2023-09-30T12:30:32;22.40;99.90
32614;DHT22;19031;51.400;6.770;2023-09-30T12:32:58;22.50;99.90
32614;DHT22;19031;51.400;6.770;2023-09-30T12:35:24;22.40;99.90
32614;DHT22;19031;51.400;6.770;2023-09-30T12:37:50;22.20;99.90
32614;DHT22;19031;51.400;6.770;2023-09-30T12:40:16;22.00;99.90
32614;DHT22;19031;51.400;6.770;2023-09-30T12:42:43;21.90;99.90
32614;DHT22;19031;51.400;6.770;2023-09-30T12:45:10;22.00;99.90
32614;DHT22;19031;51.400;6.770;2023-09-30T12:47:36;22.00;99.90
32614;DHT22;19031;51.400;6.770;2023-09-30T12:50:02;21.90;99.90
32614;DHT22;19031;51.400;6.770;2023-09-30T12:52:28;21.90;99.90
32614;DHT22;19031;51.400;6.770;2023-09-30T12:54:55;21.90;99.90
32614;DHT22;19031;51.400;6.770;2023-09-30T12:57:21;21.90;99.90
32614;DHT22;19031;51.400;6.770;2023-09-30T12:59:47;21.80;99.90
32614;DHT22;19031;51.400;6.770;2023-09-30T13:02:15;21.70;99.90
32614;DHT22;19031;51.400;6.770;2023-09-30T13:04:41;22.00;99.90
32614;DHT22;19031;51.400;6.770;2023-09-30T13:07:09;21.90;99.90
32614;DHT22;19031;51.400;6.770;2023-09-30T13:09:36;21.90;99.90
32614;DHT22;19031;51.400;6.770;2023-09-30T13:12:02;22.10;99.90
32614;DHT22;19031;51.400;6.770;2023-09-30T13:14:28;22.20;99.90
32614;DHT22;19031;51.400;6.770;2023-09-30T13:16:54;22.10;99.90
32614;DHT22;19031;51.400;6.770;2023-09-30T13:19:20;22.10;99.90
32614;DHT22;19031;51.400;6.770;2023-09-30T13:21:49;22.00;99.90
32614;DHT22;19031;51.400;6.770;2023-09-30T13:24:15;22.00;99.90
32614;DHT22;19031;51.400;6.770;2023-09-30T13:26:41;22.10;99.90
32614;DHT22;19031;51.400;6.770;2023-09-30T13:29:07;22.00;99.90
32614;DHT22;19031;51.400;6.770;2023-09-30T13:31:35;21.70;99.90
32614;DHT22;19031;51.400;6.770;2023-09-30T13:34:06;21.70;99.90
32614;DHT22;19031;51.400;6.770;2023-09-30T13:36:32;21.60;99.90
32614;DHT22;19031;51.400;6.770;2023-09-30T13:38:57;21.30;99.90
32614;DHT22;19031;51.400;6.770;2023-09-30T13:41:23;21.30;99.90
32614;DHT22;19031;51.400;6.770;2023-09-30T13:43:48;21.20;99.90
32614;DHT22;19031;51.400;6.770;2023-09-30T13:46:14;21.20;99.90
32614;DHT22;19031;51.400;6.770;2023-09-30T13:48:41;21.10;99.90
32614;DHT22;19031;51.400;6.770;2023-09-30T13:51:08;21.10;99.90
32614;DHT22;19031;51.400;6.770;2023-09-30T13:53:33;21.10;99.90
32614;DHT22;19031;51.400;6.770;2023-09-30T13:55:59;21.10;99.90
32614;DHT22;19031;51.400;6.770;2023-09-30T13:58:25;21.10;99.90
32614;DHT22;19031;51.400;6.770;2023-09-30T14:00:51;21.10;99.90
32614;DHT22;19031;51.400;6.770;2023-09-30T14:03:21;21.00;99.90
32614;DHT22;19031;51.400;6.770;2023-09-30T14:05:47;21.00;99.90
32614;DHT22;19031;51.400;6.770;2023-09-30T14:08:13;21.00;99.90
32614;DHT22;19031;51.400;6.770;2023-09-30T14:10:38;20.70;99.90
32614;DHT22;19031;51.400;6.770;2023-09-30T14:13:04;20.50;99.90
32614;DHT22;19031;51.400;6.770;2023-09-30T14:15:30;20.60;99.90
32614;DHT22;19031;51.400;6.770;2023-09-30T14:17:59;20.60;99.90
32614;DHT22;19031;51.400;6.770;2023-09-30T14:20:25;20.40;99.90
32614;DHT22;19031;51.400;6.770;2023-09-30T14:22:51;20.30;99.90
32614;DHT22;19031;51.400;6.770;2023-09-30T14:25:17;20.30;99.90
32614;DHT22;19031;51.400;6.770;2023-09-30T14:27:43;20.40;99.90
32614;DHT22;19031;51.400;6.770;2023-09-30T14:30:09;20.30;99.90
32614;DHT22;19031;51.400;6.770;2023-09-30T14:32:35;20.30;99.90
32614;DHT22;19031;51.400;6.770;2023-09-30T14:35:01;20.40;99.90
32614;DHT22;19031;51.400;6.770;2023-09-30T14:37:26;20.30;99.90
32614;DHT22;19031;51.400;6.770;2023-09-30T14:39:52;20.40;99.90
32614;DHT22;19031;51.400;6.770;2023-09-30T14:42:18;20.40;99.90
32614;DHT22;19031;51.400;6.770;2023-09-30T14:44:43;20.30;99.90
32614;DHT22;19031;51.400;6.770;2023-09-30T14:47:09;20.20;99.90
32614;DHT22;19031;51.400;6.770;2023-09-30T14:49:35;20.30;99.90
32614;DHT22;19031;51.400;6.770;2023-09-30T14:52:00;20.30;99.90
32614;DHT22;19031;51.400;6.770;2023-09-30T14:54:26;20.30;99.90
32614;DHT22;19031;51.400;6.770;2023-09-30T14:56:52;20.30;99.90
32614;DHT22;19031;51.400;6.770;2023-09-30T14:59:17;20.10;99.90
32614;DHT22;19031;51.400;6.770;2023-09-30T15:01:43;20.10;99.90
32614;DHT22;19031;51.400;6.770;2023-09-30T15:04:09;20.10;99.90
32614;DHT22;19031;51.400;6.770;2023-09-30T15:06:34;20.10;99.90
32614;DHT22;19031;51.400;6.770;2023-09-30T15:09:01;20.00;99.90
32614;DHT22;19031;51.400;6.770;2023-09-30T15:11:27;19.90;99.90
32614;DHT22;19031;51.400;6.770;2023-09-30T15:13:53;20.10;99.90
32614;DHT22;19031;51.400;6.770;2023-09-30T15:16:20;20.30;99.90
32614;DHT22;19031;51.400;6.770;2023-09-30T15:18:47;20.70;99.90
32614;DHT22;19031;51.400;6.770;2023-09-30T15:21:14;20.70;99.90
32614;DHT22;19031;51.400;6.770;2023-09-30T15:23:40;20.70;99.90
32614;DHT22;19031;51.400;6.770;2023-09-30T15:26:06;21.00;99.90
32614;DHT22;19031;51.400;6.770;2023-09-30T15:28:32;21.00;99.90
32614;DHT22;19031;51.400;6.770;2023-09-30T15:30:58;20.80;99.90
32614;DHT22;19031;51.400;6.770;2023-09-30T15:33:24;20.80;99.90
32614;DHT22;19031;51.400;6.770;2023-09-30T15:35:50;20.80;99.90
32614;DHT22;19031;51.400;6.770;2023-09-30T15:38:16;20.80;99.90
32614;DHT22;19031;51.400;6.770;2023-09-30T15:40:55;20.80;99.90
32614;DHT22;19031;51.400;6.770;2023-09-30T15:43:24;20.70;99.90
32614;DHT22;19031;51.400;6.770;2023-09-30T15:45:50;20.50;99.90
32614;DHT22;19031;51.400;6.770;2023-09-30T15:48:16;20.60;99.90
32614;DHT22;19031;51.400;6.770;2023-09-30T15:50:42;20.70;99.90